Time;durP1;ratioP1;P1;durP2;ratioP2;P2;SDS_P1;SDS_P2;PMS_P1;PMS_P2;Temp;Humidity;BMP_temperature;BMP_pressure;BME280_temperature;BME280_humidity;BME280_pressure;Samples;Min_cycle;Max_cycle;Signal;HPM_P1;HPM_P2
2022/01/21 00:00:10;;;;;;;17.15;4.65;;;0.00;99.90;;;;;;4942891;28;20031;-62
2022/01/21 00:02:36;;;;;;;11.88;3.75;;;0.00;99.90;;;;;;4950665;28;20043;-62
2022/01/21 00:05:02;;;;;;;17.00;4.05;;;-0.10;99.90;;;;;;4950925;29;20087;-62
2022/01/21 00:07:28;;;;;;;14.20;4.20;;;-0.10;99.90;;;;;;4949528;28;20114;-62
2022/01/21 00:09:54;;;;;;;14.77;4.65;;;-0.10;99.90;;;;;;4950593;28;20122;-63
2022/01/21 00:12:19;;;;;;;19.15;5.07;;;-0.10;99.90;;;;;;4949912;28;20039;-63
2022/01/21 00:14:46;;;;;;;18.17;4.65;;;-0.10;99.90;;;;;;4957150;28;20050;-63
2022/01/21 00:17:11;;;;;;;20.35;5.65;;;-0.10;99.90;;;;;;4949104;28;20063;-64
2022/01/21 00:19:41;;;;;;;13.82;3.88;;;-0.20;99.90;;;;;;4950693;28;20058;-62
2022/01/21 00:30:23;;;;;;;17.83;4.25;;;-0.10;99.90;;;;;;4949600;28;20090;-63
2022/01/21 00:32:49;;;;;;;17.85;4.60;;;-0.10;99.90;;;;;;4949337;28;20115;-61
2022/01/21 00:35:16;;;;;;;19.27;5.55;;;-0.20;99.90;;;;;;4949311;28;20126;-62
2022/01/21 00:37:42;;;;;;;16.25;5.07;;;-0.20;99.90;;;;;;4953922;28;20046;-63
2022/01/21 00:40:12;;;;;;;18.73;4.85;;;-0.20;99.90;;;;;;4955388;28;20031;-63
2022/01/21 00:45:10;;;;;;;20.23;5.47;;;-0.20;99.90;;;;;;4956001;28;20039;-62
2022/01/21 00:47:36;;;;;;;15.18;4.82;;;-0.20;99.90;;;;;;4954756;28;20062;-62
2022/01/21 00:50:03;;;;;;;17.55;5.03;;;-0.30;99.90;;;;;;4947564;28;20051;-62
2022/01/21 00:52:29;;;;;;;19.63;4.75;;;-0.30;99.90;;;;;;4948031;28;20040;-63
2022/01/21 00:54:54;;;;;;;17.52;5.50;;;-0.30;99.90;;;;;;4954443;28;20038;-61
2022/01/21 00:57:20;;;;;;;21.80;5.00;;;-0.40;99.90;;;;;;4953288;28;20045;-63
2022/01/21 00:59:46;;;;;;;17.92;5.45;;;-0.30;99.90;;;;;;4956048;28;20037;-63
2022/01/21 01:02:12;;;;;;;20.50;5.93;;;-0.30;99.90;;;;;;4953638;28;20049;-62
2022/01/21 01:04:37;;;;;;;17.90;4.75;;;-0.20;99.90;;;;;;4951397;28;20098;-63
2022/01/21 01:07:04;;;;;;;18.00;5.53;;;-0.20;99.90;;;;;;4948938;28;20043;-62
2022/01/21 01:09:30;;;;;;;20.55;5.60;;;-0.20;99.90;;;;;;4949690;28;20216;-62
2022/01/21 01:22:26;;;;;;;16.77;5.30;;;-0.20;99.90;;;;;;4951422;28;20031;-62
2022/01/21 01:27:44;;;;;;;16.10;4.65;;;-0.10;99.90;;;;;;4954848;28;19922;-61
2022/01/21 01:30:15;;;;;;;17.55;4.75;;;-0.20;99.90;;;;;;4953695;28;20055;-63
2022/01/21 01:32:43;;;;;;;10.73;4.30;;;-0.10;99.90;;;;;;4955116;28;20042;-61
2022/01/21 01:35:10;;;;;;;17.67;4.93;;;-0.20;99.90;;;;;;4953819;28;20043;-62
2022/01/21 01:38:13;;;;;;;15.70;5.03;;;-0.20;99.90;;;;;;4954107;28;20039;-62
2022/01/21 01:50:52;;;;;;;16.33;5.15;;;-0.20;99.90;;;;;;4953952;28;20503;-63
2022/01/21 01:53:22;;;;;;;16.48;4.70;;;-0.20;99.90;;;;;;4950124;28;20065;-62
2022/01/21 01:55:48;;;;;;;15.00;5.07;;;-0.20;99.90;;;;;;4951138;28;20468;-62
2022/01/21 01:58:14;;;;;;;17.27;4.90;;;-0.20;99.90;;;;;;4948338;28;20039;-61
2022/01/21 02:00:43;;;;;;;20.13;5.45;;;-0.30;99.90;;;;;;4950314;28;20107;-62
2022/01/21 02:03:11;;;;;;;20.38;4.32;;;-0.30;99.90;;;;;;4954181;28;20039;-63
2022/01/21 02:05:37;;;;;;;21.98;4.97;;;-0.40;99.90;;;;;;4950768;28;20023;-62
2022/01/21 02:08:03;;;;;;;18.73;5.20;;;-0.40;99.90;;;;;;4950752;28;20059;-62
2022/01/21 02:10:29;;;;;;;15.40;4.78;;;-0.40;99.90;;;;;;4950715;28;20066;-62
2022/01/21 02:13:03;;;;;;;14.45;4.93;;;-0.50;99.90;;;;;;4950611;28;20073;-62
2022/01/21 02:15:30;;;;;;;19.23;5.10;;;-0.50;99.90;;;;;;4950224;28;20035;-61
2022/01/21 02:23:27;;;;;;;24.52;5.40;;;-0.40;99.90;;;;;;4950901;28;20027;-62
2022/01/21 02:25:52;;;;;;;17.83;5.68;;;-0.40;99.90;;;;;;4950690;29;20027;-61
2022/01/21 02:28:19;;;;;;;19.00;5.00;;;-0.40;99.90;;;;;;4950419;28;20556;-62
2022/01/21 02:30:56;;;;;;;21.07;5.80;;;-0.40;99.90;;;;;;4951169;28;20432;-62
2022/01/21 02:33:22;;;;;;;20.80;5.43;;;-0.30;99.90;;;;;;4949742;29;20082;-62
2022/01/21 02:35:48;;;;;;;13.05;5.30;;;-0.30;99.90;;;;;;4951856;28;20565;-63
2022/01/21 02:38:15;;;;;;;15.98;5.03;;;-0.30;99.90;;;;;;4950792;28;20035;-63
2022/01/21 02:40:41;;;;;;;18.13;5.35;;;-0.30;99.90;;;;;;4949808;28;20034;-60
2022/01/21 02:43:06;;;;;;;16.70;5.18;;;-0.30;99.90;;;;;;4951291;28;20392;-61
2022/01/21 02:45:33;;;;;;;13.98;4.68;;;-0.40;99.90;;;;;;4949248;28;20477;-61
2022/01/21 02:47:59;;;;;;;15.68;5.38;;;-0.40;99.90;;;;;;4951716;28;20054;-62
2022/01/21 02:50:25;;;;;;;17.35;4.95;;;-0.40;99.90;;;;;;4950331;28;20452;-62
2022/01/21 02:52:57;;;;;;;23.73;5.57;;;-0.40;99.90;;;;;;4951742;28;20047;-62
2022/01/21 02:55:24;;;;;;;21.55;5.05;;;-0.40;99.90;;;;;;4950321;28;20031;-63
2022/01/21 02:57:49;;;;;;;21.02;5.45;;;-0.40;99.90;;;;;;4949943;28;20110;-63
2022/01/21 03:00:16;;;;;;;18.20;5.30;;;-0.40;99.90;;;;;;4949790;28;20511;-63
2022/01/21 03:02:42;;;;;;;18.40;5.32;;;-0.50;99.90;;;;;;4947639;28;20042;-63
2022/01/21 03:05:13;;;;;;;19.30;5.15;;;-0.60;99.90;;;;;;4950363;28;20032;-63
2022/01/21 03:07:39;;;;;;;25.25;6.10;;;-0.60;99.90;;;;;;4943747;28;20043;-62
2022/01/21 03:10:05;;;;;;;21.23;5.90;;;-0.60;99.90;;;;;;4950473;28;20027;-62
2022/01/21 03:12:31;;;;;;;21.55;5.38;;;-0.50;99.90;;;;;;4946574;28;20469;-62
2022/01/21 03:14:57;;;;;;;12.25;4.35;;;-0.50;99.90;;;;;;4950710;28;20039;-63
2022/01/21 03:17:22;;;;;;;19.67;5.40;;;-0.50;99.90;;;;;;4949468;29;20031;-63
2022/01/21 03:19:48;;;;;;;22.80;5.22;;;-0.40;99.90;;;;;;4947426;28;20050;-62
2022/01/21 03:22:14;;;;;;;21.33;5.57;;;-0.40;99.90;;;;;;4947741;28;20511;-62
2022/01/21 03:24:40;;;;;;;23.33;5.65;;;-0.50;99.90;;;;;;4948394;28;20031;-61
2022/01/21 03:27:05;;;;;;;17.23;5.07;;;-0.50;99.90;;;;;;4949713;28;20035;-62
2022/01/21 03:29:31;;;;;;;22.27;5.07;;;-0.50;99.90;;;;;;4949656;28;20074;-62
2022/01/21 03:31:57;;;;;;;21.13;5.63;;;-0.50;99.90;;;;;;4947309;28;20032;-62
2022/01/21 03:34:23;;;;;;;15.55;5.10;;;-0.50;99.90;;;;;;4950447;28;20035;-63
2022/01/21 03:36:49;;;;;;;19.50;5.25;;;-0.50;99.90;;;;;;4950301;29;20126;-63
2022/01/21 03:39:16;;;;;;;19.95;5.35;;;-0.50;99.90;;;;;;4951676;28;20051;-62
2022/01/21 03:41:42;;;;;;;13.02;4.65;;;-0.50;99.90;;;;;;4947316;28;20035;-61
2022/01/21 03:44:08;;;;;;;19.17;5.65;;;-0.50;99.90;;;;;;4949751;28;20047;-62
2022/01/21 03:46:34;;;;;;;16.70;5.60;;;-0.40;99.90;;;;;;4939905;28;20078;-61
2022/01/21 03:49:02;;;;;;;24.23;5.22;;;-0.40;99.90;;;;;;4948815;28;20027;-61
2022/01/21 03:51:28;;;;;;;18.77;6.15;;;-0.40;99.90;;;;;;4950821;28;20054;-63
2022/01/21 03:53:54;;;;;;;18.17;4.97;;;-0.40;99.90;;;;;;4948972;28;20480;-61
2022/01/21 03:56:20;;;;;;;21.15;5.55;;;-0.40;99.90;;;;;;4948529;28;20086;-62
2022/01/21 03:58:45;;;;;;;18.17;5.43;;;-0.40;99.90;;;;;;4947264;28;20035;-61
2022/01/21 04:01:11;;;;;;;13.52;5.38;;;-0.50;99.90;;;;;;4946802;28;20019;-62
2022/01/21 04:03:37;;;;;;;21.33;5.90;;;-0.50;99.90;;;;;;4952561;28;20035;-62
2022/01/21 04:06:03;;;;;;;19.50;6.50;;;-0.40;99.90;;;;;;4950557;28;20063;-61
2022/01/21 04:08:28;;;;;;;17.33;4.90;;;-0.40;99.90;;;;;;4954527;28;20055;-61
2022/01/21 04:10:54;;;;;;;17.83;4.93;;;-0.40;99.90;;;;;;4950751;28;20031;-62
2022/01/21 04:13:22;;;;;;;19.30;5.25;;;-0.40;99.90;;;;;;4949271;28;20774;-62
2022/01/21 04:15:53;;;;;;;16.63;5.55;;;-0.40;99.90;;;;;;4949815;28;20031;-61
2022/01/21 04:18:19;;;;;;;21.30;5.70;;;-0.40;99.90;;;;;;4948137;29;20153;-62
2022/01/21 04:20:47;;;;;;;19.13;5.75;;;-0.40;99.90;;;;;;4949626;29;20027;-61
2022/01/21 04:23:15;;;;;;;24.35;5.45;;;-0.40;99.90;;;;;;4950094;28;20035;-62
2022/01/21 04:25:42;;;;;;;19.70;5.55;;;-0.40;99.90;;;;;;4949871;28;20587;-61
2022/01/21 04:28:08;;;;;;;25.98;6.07;;;-0.40;99.90;;;;;;4954434;28;20094;-62
2022/01/21 04:30:34;;;;;;;21.92;6.30;;;-0.40;99.90;;;;;;4953863;28;20031;-63
2022/01/21 04:33:00;;;;;;;31.83;6.68;;;-0.50;99.90;;;;;;4948422;28;20091;-61
2022/01/21 04:35:26;;;;;;;23.77;6.13;;;-0.50;99.90;;;;;;4948911;28;20047;-62
2022/01/21 04:37:56;;;;;;;16.42;5.32;;;-0.50;99.90;;;;;;4950275;28;20043;-62
2022/01/21 04:40:26;;;;;;;24.73;6.25;;;-0.50;99.90;;;;;;4950332;28;20465;-63
2022/01/21 04:48:20;;;;;;;19.38;5.65;;;-0.50;99.90;;;;;;4950779;28;20110;-62
2022/01/21 04:50:58;;;;;;;18.90;6.03;;;-0.60;99.90;;;;;;4948272;28;20115;-62
2022/01/21 04:53:26;;;;;;;16.10;4.95;;;-0.60;99.90;;;;;;4950120;28;20039;-63
2022/01/21 04:55:52;;;;;;;21.20;5.88;;;-0.50;99.90;;;;;;4951818;28;20035;-61
2022/01/21 04:58:19;;;;;;;18.40;5.47;;;-0.50;99.90;;;;;;4946682;28;20114;-63
2022/01/21 05:00:45;;;;;;;20.58;5.63;;;-0.60;99.90;;;;;;4948501;28;20599;-63
2022/01/21 05:03:12;;;;;;;14.63;5.43;;;-0.60;99.90;;;;;;4949839;29;20126;-61
2022/01/21 05:05:38;;;;;;;18.55;5.10;;;-0.60;99.90;;;;;;4948600;28;20457;-63
2022/01/21 05:08:08;;;;;;;19.00;5.78;;;-0.60;99.90;;;;;;4950910;28;20758;-63
2022/01/21 05:10:35;;;;;;;25.13;6.27;;;-0.60;99.90;;;;;;4958844;28;20097;-64
2022/01/21 05:13:01;;;;;;;18.23;5.57;;;-0.60;99.90;;;;;;4951056;28;20035;-63
2022/01/21 05:18:11;;;;;;;18.73;5.03;;;-0.70;99.90;;;;;;4950376;28;20107;-62
2022/01/21 05:20:36;;;;;;;15.27;4.47;;;-0.70;99.90;;;;;;4950969;28;20043;-62
2022/01/21 05:23:02;;;;;;;14.57;4.22;;;-0.80;99.90;;;;;;4951102;28;20665;-63
2022/01/21 05:25:28;;;;;;;17.60;5.07;;;-0.80;99.90;;;;;;4948476;28;20027;-63
2022/01/21 05:27:55;;;;;;;13.80;4.70;;;-0.80;99.90;;;;;;4947767;28;20409;-62
2022/01/21 05:30:21;;;;;;;16.73;5.03;;;-0.90;99.90;;;;;;4958515;28;20035;-62
2022/01/21 05:32:47;;;;;;;19.85;4.93;;;-0.90;99.90;;;;;;4952291;28;20023;-63
2022/01/21 05:35:13;;;;;;;18.88;5.00;;;-0.90;99.90;;;;;;4952908;28;20400;-61
2022/01/21 05:37:39;;;;;;;16.23;4.63;;;-0.90;99.90;;;;;;4952078;28;20167;-62
2022/01/21 05:40:12;;;;;;;18.90;4.65;;;-0.80;99.90;;;;;;4951755;28;20035;-62
2022/01/21 05:42:38;;;;;;;18.52;5.28;;;-0.90;99.90;;;;;;4956609;28;20035;-63
2022/01/21 05:47:31;;;;;;;14.02;4.32;;;-0.90;99.90;;;;;;4951550;28;20499;-62
2022/01/21 05:49:57;;;;;;;21.95;5.45;;;-0.80;99.90;;;;;;4952848;28;20031;-62
2022/01/21 05:52:33;;;;;;;17.25;5.03;;;-0.80;99.90;;;;;;4952893;28;20469;-63
2022/01/21 05:54:59;;;;;;;16.67;4.65;;;-0.80;99.90;;;;;;4950665;29;20114;-62
2022/01/21 05:57:24;;;;;;;20.95;4.47;;;-0.70;99.90;;;;;;4948481;28;20484;-62
2022/01/21 05:59:50;;;;;;;23.83;5.10;;;-0.60;99.90;;;;;;4950189;29;20043;-63
2022/01/21 06:02:16;;;;;;;19.77;5.60;;;-0.60;99.90;;;;;;4953038;28;20031;-63
2022/01/21 06:04:44;;;;;;;22.50;6.05;;;-0.60;99.90;;;;;;4951886;28;20034;-62
2022/01/21 06:07:10;;;;;;;16.48;4.95;;;-0.50;99.90;;;;;;4952767;28;20039;-61
2022/01/21 06:09:37;;;;;;;17.15;5.55;;;-0.50;99.90;;;;;;4958907;28;20074;-63
2022/01/21 06:12:07;;;;;;;19.92;5.72;;;-0.50;99.90;;;;;;4959470;28;20039;-64
2022/01/21 06:14:32;;;;;;;18.48;5.88;;;-0.50;99.90;;;;;;4948293;28;20031;-62
2022/01/21 06:16:58;;;;;;;19.23;5.80;;;-0.50;99.90;;;;;;4952223;28;20031;-62
2022/01/21 06:19:29;;;;;;;26.48;5.80;;;-0.50;99.90;;;;;;4951592;28;20388;-63
2022/01/21 06:21:55;;;;;;;23.98;5.25;;;-0.50;99.90;;;;;;4953447;28;20408;-63
2022/01/21 06:24:21;;;;;;;17.17;5.60;;;-0.60;99.90;;;;;;4952827;29;20035;-62
2022/01/21 06:26:46;;;;;;;16.80;5.35;;;-0.60;99.90;;;;;;4950016;28;20039;-64
2022/01/21 06:29:12;;;;;;;24.17;5.40;;;-0.60;99.90;;;;;;4947465;28;20038;-61
2022/01/21 06:31:38;;;;;;;15.63;5.20;;;-0.60;99.90;;;;;;4949451;28;20031;-61
2022/01/21 06:34:03;;;;;;;24.80;6.00;;;-0.70;99.90;;;;;;4956363;28;20035;-62
2022/01/21 06:36:29;;;;;;;19.75;5.32;;;-0.70;99.90;;;;;;4955447;28;20361;-62
2022/01/21 06:38:55;;;;;;;24.20;5.72;;;-0.70;99.90;;;;;;4951364;28;20046;-62
2022/01/21 06:41:21;;;;;;;22.48;5.85;;;-0.70;99.90;;;;;;4953553;28;20042;-62
2022/01/21 06:43:47;;;;;;;19.20;6.05;;;-0.70;99.90;;;;;;4951397;28;20039;-62
2022/01/21 06:46:13;;;;;;;20.17;5.68;;;-0.80;99.90;;;;;;4947775;28;20090;-63
2022/01/21 06:48:38;;;;;;;29.65;5.55;;;-0.70;99.90;;;;;;4950019;28;20039;-62
2022/01/21 06:51:04;;;;;;;22.13;6.68;;;-0.70;99.90;;;;;;4950696;28;20035;-63
2022/01/21 06:53:30;;;;;;;23.25;5.53;;;-0.60;99.90;;;;;;4958199;28;20481;-62
2022/01/21 06:55:56;;;;;;;19.52;5.97;;;-0.70;99.90;;;;;;4951124;28;20460;-61
2022/01/21 06:58:22;;;;;;;21.08;5.60;;;-0.70;99.90;;;;;;4959179;28;20027;-63
2022/01/21 07:00:47;;;;;;;20.60;5.50;;;-0.70;99.90;;;;;;4953325;28;20372;-62
2022/01/21 07:03:13;;;;;;;19.60;5.45;;;-0.70;99.90;;;;;;4953270;28;20039;-63
2022/01/21 07:05:39;;;;;;;19.77;5.55;;;-0.70;99.90;;;;;;4955134;28;20035;-62
2022/01/21 07:08:05;;;;;;;22.33;5.40;;;-0.70;99.90;;;;;;4952068;28;20062;-63
2022/01/21 07:10:31;;;;;;;23.63;6.63;;;-0.60;99.90;;;;;;4950381;28;21498;-61
2022/01/21 07:12:57;;;;;;;18.27;6.45;;;-0.60;99.90;;;;;;4952893;28;20400;-62
2022/01/21 07:15:23;;;;;;;19.63;5.93;;;-0.70;99.90;;;;;;4954617;28;20146;-62
2022/01/21 07:17:52;;;;;;;15.65;5.43;;;-0.60;99.90;;;;;;4949368;28;20516;-62
2022/01/21 07:20:18;;;;;;;20.65;6.38;;;-0.60;99.90;;;;;;4951401;28;20062;-62
2022/01/21 07:22:44;;;;;;;21.13;6.22;;;-0.60;99.90;;;;;;4952455;28;20086;-63
2022/01/21 07:25:10;;;;;;;14.50;5.07;;;-0.60;99.90;;;;;;4949113;28;20027;-62
2022/01/21 07:27:36;;;;;;;19.92;5.10;;;-0.60;99.90;;;;;;4949107;28;20039;-63
2022/01/21 07:30:04;;;;;;;22.88;5.90;;;-0.60;99.90;;;;;;4950967;28;20373;-62
2022/01/21 07:32:29;;;;;;;22.77;5.20;;;-0.60;99.90;;;;;;4950760;28;20454;-62
2022/01/21 07:34:55;;;;;;;30.35;7.25;;;-0.60;99.90;;;;;;4949491;28;20135;-62
2022/01/21 07:37:21;;;;;;;17.23;5.15;;;-0.60;99.90;;;;;;4951548;28;20110;-62
2022/01/21 07:39:47;;;;;;;17.67;5.53;;;-0.70;99.90;;;;;;4950358;28;20042;-63
2022/01/21 07:42:12;;;;;;;16.13;5.18;;;-0.70;99.90;;;;;;4952580;28;20462;-63
2022/01/21 07:44:38;;;;;;;19.58;5.95;;;-0.70;99.90;;;;;;4950247;28;20465;-62
2022/01/21 07:47:05;;;;;;;20.42;6.20;;;-0.70;99.90;;;;;;4950746;28;20031;-63
2022/01/21 07:49:31;;;;;;;24.15;6.43;;;-0.70;99.90;;;;;;4950632;28;20532;-64
2022/01/21 07:51:57;;;;;;;24.48;5.97;;;-0.60;99.90;;;;;;4947534;28;20049;-62
2022/01/21 07:54:23;;;;;;;22.52;5.68;;;-0.60;99.90;;;;;;4950174;28;20399;-63
2022/01/21 07:56:48;;;;;;;21.33;6.20;;;-0.70;99.90;;;;;;4949902;28;20086;-62
2022/01/21 07:59:15;;;;;;;24.75;6.57;;;-0.60;99.90;;;;;;4949718;28;20037;-62
2022/01/21 08:01:42;;;;;;;24.77;6.47;;;-0.60;99.90;;;;;;4953582;28;20049;-63
2022/01/21 08:04:08;;;;;;;30.17;6.75;;;-0.70;99.90;;;;;;4959865;28;20467;-63
2022/01/21 08:06:34;;;;;;;16.83;6.47;;;-0.70;99.90;;;;;;4953334;28;20110;-63
2022/01/21 08:09:01;;;;;;;21.70;7.03;;;-0.70;99.90;;;;;;4948954;28;20128;-63
2022/01/21 08:11:27;;;;;;;20.80;7.00;;;-0.70;99.90;;;;;;4950900;28;20075;-61
2022/01/21 08:13:53;;;;;;;18.55;6.53;;;-0.70;99.90;;;;;;4953014;28;20519;-62
2022/01/21 08:16:19;;;;;;;28.10;6.55;;;-0.70;99.90;;;;;;4951934;28;20107;-61
2022/01/21 08:18:45;;;;;;;20.77;5.97;;;-0.70;99.90;;;;;;4949432;28;20046;-62
2022/01/21 08:21:18;;;;;;;20.10;6.15;;;-0.80;99.90;;;;;;4950216;28;20035;-61
2022/01/21 08:23:48;;;;;;;18.55;6.60;;;-0.80;99.90;;;;;;4945372;28;20031;-63
2022/01/21 08:26:15;;;;;;;26.98;7.38;;;-0.70;99.90;;;;;;4950922;28;20031;-63
2022/01/21 08:28:40;;;;;;;24.33;7.88;;;-0.70;99.90;;;;;;4949187;28;20071;-63
2022/01/21 08:31:06;;;;;;;24.80;6.97;;;-0.70;99.90;;;;;;4949805;28;20066;-61
2022/01/21 08:33:32;;;;;;;31.65;7.75;;;-0.70;99.90;;;;;;4952612;28;20034;-63
2022/01/21 08:35:57;;;;;;;27.67;7.63;;;-0.70;99.90;;;;;;4949826;28;20027;-63
2022/01/21 08:38:23;;;;;;;26.98;8.48;;;-0.70;99.90;;;;;;4950117;28;20866;-62
2022/01/21 08:40:49;;;;;;;30.63;8.68;;;-0.70;99.90;;;;;;4948639;28;20035;-63
2022/01/21 08:43:15;;;;;;;36.42;8.48;;;-0.70;99.90;;;;;;4947778;28;20059;-61
2022/01/21 08:45:40;;;;;;;25.42;8.05;;;-0.70;99.90;;;;;;4952641;28;20062;-64
2022/01/21 08:48:06;;;;;;;29.98;8.18;;;-0.70;99.90;;;;;;4949825;28;20031;-62
2022/01/21 08:50:32;;;;;;;23.92;8.02;;;-0.70;99.90;;;;;;4949010;28;20409;-62
2022/01/21 08:53:09;;;;;;;28.48;7.68;;;-0.60;99.90;;;;;;4949298;28;20639;-63
2022/01/21 08:55:35;;;;;;;33.90;8.48;;;-0.40;99.90;;;;;;4949334;28;20051;-67
2022/01/21 08:58:01;;;;;;;33.70;9.15;;;-0.40;99.90;;;;;;4950667;28;20031;-66
2022/01/21 09:00:27;;;;;;;32.90;10.80;;;-0.30;99.90;;;;;;4954835;28;20031;-66
2022/01/21 09:02:53;;;;;;;31.25;8.07;;;-0.20;99.90;;;;;;4953189;28;20038;-67
2022/01/21 09:05:19;;;;;;;31.42;9.23;;;-0.20;99.90;;;;;;4952439;29;20178;-67
2022/01/21 09:07:45;;;;;;;30.17;8.55;;;-0.20;99.90;;;;;;4953183;29;20057;-69
2022/01/21 09:10:12;;;;;;;33.17;8.52;;;-0.30;99.90;;;;;;4953298;28;20404;-65
2022/01/21 09:12:38;;;;;;;32.55;7.88;;;-0.30;99.90;;;;;;4952915;28;20445;-66
2022/01/21 09:15:06;;;;;;;34.78;10.50;;;-0.40;99.90;;;;;;4955892;28;20100;-65
2022/01/21 09:17:34;;;;;;;34.78;8.85;;;-0.40;99.90;;;;;;4955610;28;20056;-65
2022/01/21 09:20:00;;;;;;;30.88;9.23;;;-0.40;99.90;;;;;;4953870;28;20030;-68
2022/01/21 09:22:25;;;;;;;33.17;9.40;;;-0.40;99.90;;;;;;4956182;28;20039;-66
2022/01/21 09:24:51;;;;;;;32.22;8.70;;;-0.40;99.90;;;;;;4952601;28;20035;-69
2022/01/21 09:27:17;;;;;;;30.25;8.32;;;-0.20;99.90;;;;;;4953562;28;20032;-69
2022/01/21 09:29:42;;;;;;;34.13;9.20;;;-0.10;99.90;;;;;;4951060;28;20043;-66
2022/01/21 09:32:09;;;;;;;30.05;8.88;;;-0.10;99.90;;;;;;4954114;28;20134;-68
2022/01/21 09:34:34;;;;;;;29.10;8.68;;;-0.10;99.90;;;;;;4950887;28;20047;-68
2022/01/21 09:37:01;;;;;;;33.60;8.25;;;0.00;99.90;;;;;;4952424;28;20679;-67
2022/01/21 09:39:29;;;;;;;35.38;9.90;;;0.10;99.90;;;;;;4952839;28;20035;-67
2022/01/21 09:42:00;;;;;;;24.20;8.15;;;0.10;99.90;;;;;;4952325;28;20733;-69
2022/01/21 09:44:27;;;;;;;37.20;8.68;;;0.10;99.90;;;;;;4953601;28;20171;-66
2022/01/21 09:46:56;;;;;;;30.75;8.52;;;0.10;99.90;;;;;;4953253;28;20066;-66
2022/01/21 09:49:26;;;;;;;35.47;8.45;;;0.20;99.90;;;;;;4953757;28;20023;-67
2022/01/21 09:52:04;;;;;;;33.60;8.70;;;0.20;99.90;;;;;;4959979;28;20118;-68
2022/01/21 09:54:33;;;;;;;27.10;7.80;;;0.30;99.90;;;;;;4950680;29;20043;-65
2022/01/21 09:57:00;;;;;;;24.65;7.97;;;0.40;99.90;;;;;;4951108;28;20523;-68
2022/01/21 09:59:30;;;;;;;21.27;8.18;;;0.40;99.90;;;;;;4950991;28;20027;-68
2022/01/21 10:02:01;;;;;;;30.55;7.93;;;0.40;99.90;;;;;;4951492;28;20463;-67
2022/01/21 10:04:33;;;;;;;26.00;8.15;;;0.50;99.90;;;;;;4953003;28;20034;-68
2022/01/21 10:07:01;;;;;;;23.38;8.05;;;0.40;99.90;;;;;;4952048;28;20525;-68
2022/01/21 10:09:27;;;;;;;33.47;8.63;;;0.40;99.90;;;;;;4950884;28;20162;-66
2022/01/21 10:11:55;;;;;;;25.02;8.25;;;0.40;99.90;;;;;;4951730;28;20086;-66
2022/01/21 10:14:23;;;;;;;24.17;8.52;;;0.40;99.90;;;;;;4952465;28;20051;-69
2022/01/21 10:16:50;;;;;;;30.27;8.77;;;0.40;99.90;;;;;;4957317;28;20062;-69
2022/01/21 10:19:34;;;;;;;28.27;8.23;;;0.40;99.90;;;;;;4951518;28;20115;-69
2022/01/21 10:22:05;;;;;;;26.15;8.50;;;0.40;99.90;;;;;;4952529;28;20038;-67
2022/01/21 10:24:33;;;;;;;26.05;7.93;;;0.40;99.90;;;;;;4952504;28;20050;-67
2022/01/21 10:27:00;;;;;;;24.75;8.10;;;0.40;99.90;;;;;;4959482;28;20109;-68
2022/01/21 10:29:38;;;;;;;31.83;8.82;;;0.40;99.90;;;;;;4959915;28;20042;-68
2022/01/21 10:32:06;;;;;;;26.00;7.75;;;0.50;99.90;;;;;;4957513;28;20079;-66
2022/01/21 10:34:41;;;;;;;28.40;8.98;;;0.50;99.90;;;;;;4950164;29;20059;-69
2022/01/21 10:37:24;;;;;;;43.72;8.30;;;0.50;99.90;;;;;;4949822;28;20034;-70
2022/01/21 10:39:57;;;;;;;22.70;7.63;;;0.60;99.90;;;;;;4950835;28;20039;-68
2022/01/21 10:42:24;;;;;;;25.33;7.35;;;0.50;99.90;;;;;;4950505;29;20102;-70
2022/01/21 10:44:50;;;;;;;25.85;7.15;;;0.60;99.90;;;;;;4950907;28;20531;-68
2022/01/21 10:47:17;;;;;;;29.83;8.40;;;0.50;99.90;;;;;;4951497;28;20211;-69
2022/01/21 10:49:56;;;;;;;26.35;8.10;;;0.50;99.90;;;;;;4952991;28;20038;-67
2022/01/21 10:52:30;;;;;;;29.83;7.32;;;0.50;99.90;;;;;;4951674;28;20558;-69
2022/01/21 10:54:57;;;;;;;22.10;7.65;;;0.50;99.90;;;;;;4951159;28;20074;-69
2022/01/21 10:57:23;;;;;;;32.92;7.28;;;0.60;99.90;;;;;;4950351;28;20023;-68
2022/01/21 11:00:03;;;;;;;23.92;7.20;;;0.60;99.90;;;;;;4950053;28;20034;-70
2022/01/21 11:02:29;;;;;;;;;;;0.60;99.90;;;;;;4954126;28;20713;-68
2022/01/21 11:04:57;;;;;;;22.70;6.97;;;0.60;99.90;;;;;;4950066;28;20009;-68
2022/01/21 11:08:00;;;;;;;25.25;7.47;;;0.60;99.90;;;;;;4956400;28;20503;-69
2022/01/21 11:10:36;;;;;;;31.98;7.50;;;0.60;99.90;;;;;;4947007;28;20035;-68
2022/01/21 11:13:18;;;;;;;29.48;7.93;;;0.60;99.90;;;;;;4946665;28;20031;-68
2022/01/21 11:15:58;;;;;;;24.40;8.50;;;0.60;99.90;;;;;;4951039;28;20039;-66
2022/01/21 11:18:29;;;;;;;30.33;9.30;;;0.60;99.90;;;;;;4948402;28;20074;-66
2022/01/21 11:21:05;;;;;;;32.33;8.60;;;0.50;99.90;;;;;;4951582;28;20035;-68
2022/01/21 11:23:32;;;;;;;30.30;9.15;;;0.60;99.90;;;;;;4950560;28;20475;-68
2022/01/21 11:26:04;;;;;;;30.77;8.82;;;0.60;99.90;;;;;;4941516;28;20106;-68
2022/01/21 11:28:46;;;;;;;28.08;8.30;;;0.60;99.90;;;;;;4951515;28;20038;-68
2022/01/21 11:31:13;;;;;;;32.38;8.27;;;0.70;99.90;;;;;;4942709;29;20075;-67
2022/01/21 11:33:39;;;;;;;29.10;8.38;;;0.70;99.90;;;;;;4949101;28;20130;-67
2022/01/21 11:36:06;;;;;;;28.35;8.27;;;0.70;99.90;;;;;;4950134;28;20107;-67
2022/01/21 11:38:37;;;;;;;26.25;8.00;;;0.70;99.90;;;;;;4950342;29;20035;-67
2022/01/21 11:41:04;;;;;;;;;;;0.70;99.90;;;;;;4950398;28;20038;-67
2022/01/21 11:43:31;;;;;;;25.20;8.18;;;0.60;99.90;;;;;;4951828;28;19965;-68
2022/01/21 11:48:51;;;;;;;28.58;8.48;;;0.70;99.90;;;;;;4951575;28;20031;-67
2022/01/21 11:51:22;;;;;;;27.35;8.90;;;0.70;99.90;;;;;;4950534;28;20030;-67
2022/01/21 11:53:54;;;;;;;28.90;8.35;;;0.90;99.90;;;;;;4949846;28;20031;-68
2022/01/21 11:56:43;;;;;;;23.63;7.45;;;0.90;99.90;;;;;;4950940;28;20465;-68
2022/01/21 12:02:15;;;;;;;30.45;8.63;;;0.90;99.90;;;;;;4947048;28;20043;-67
2022/01/21 12:04:53;;;;;;;28.80;8.45;;;0.90;99.90;;;;;;4952758;28;20051;-66
2022/01/21 12:07:48;;;;;;;21.83;7.65;;;0.90;99.90;;;;;;4950723;28;20051;-67
2022/01/21 12:10:21;;;;;;;30.05;8.00;;;0.90;99.90;;;;;;4950333;28;20039;-68
2022/01/21 12:13:05;;;;;;;28.15;7.68;;;0.90;99.90;;;;;;4945146;29;20035;-67
2022/01/21 12:21:04;;;;;;;23.52;6.97;;;0.90;99.90;;;;;;4946707;28;20046;-69
2022/01/21 12:23:44;;;;;;;30.77;7.30;;;0.90;99.90;;;;;;4948588;28;20035;-68
2022/01/21 12:26:23;;;;;;;26.17;8.15;;;0.90;99.90;;;;;;4945950;29;20042;-68
2022/01/21 12:28:52;;;;;;;22.80;7.57;;;1.00;99.90;;;;;;4948897;28;20106;-69
2022/01/21 12:31:21;;;;;;;26.35;8.02;;;1.10;99.90;;;;;;4950133;28;20027;-68
2022/01/21 12:33:57;;;;;;;20.90;7.38;;;1.10;99.90;;;;;;4949110;28;20054;-67
2022/01/21 12:36:33;;;;;;;21.92;7.47;;;1.20;99.90;;;;;;4950231;28;20492;-68
2022/01/21 12:41:35;;;;;;;21.88;6.57;;;1.30;99.90;;;;;;4952592;28;20027;-68
2022/01/21 12:44:08;;;;;;;20.33;6.63;;;1.30;99.90;;;;;;4943852;28;20031;-69
2022/01/21 12:46:40;;;;;;;21.33;7.00;;;1.30;99.90;;;;;;4947945;28;20039;-69
2022/01/21 12:49:31;;;;;;;23.13;6.93;;;1.20;99.90;;;;;;4949500;28;20095;-68
2022/01/21 12:57:09;;;;;;;21.10;6.75;;;1.20;99.90;;;;;;4942987;28;20050;-67
2022/01/21 12:59:35;;;;;;;19.65;6.07;;;1.20;99.90;;;;;;4950020;28;20451;-69
2022/01/21 13:02:05;;;;;;;21.67;6.28;;;1.30;99.90;;;;;;4950507;28;20035;-69
2022/01/21 13:04:55;;;;;;;18.17;4.28;;;1.30;99.90;;;;;;4950027;28;20039;-69
2022/01/21 13:07:31;;;;;;;23.60;4.68;;;1.30;99.90;;;;;;4958637;28;20125;-69
2022/01/21 13:10:15;;;;;;;25.48;8.00;;;1.20;99.90;;;;;;4950270;28;20385;-69
2022/01/21 13:15:54;;;;;;;21.73;6.40;;;1.10;99.90;;;;;;4950349;28;20118;-69
2022/01/21 13:18:21;;;;;;;23.65;6.22;;;1.10;99.90;;;;;;4945356;28;20066;-69
2022/01/21 13:20:49;;;;;;;18.38;5.53;;;1.00;99.90;;;;;;4949115;28;20023;-69
2022/01/21 13:23:42;;;;;;;23.80;6.70;;;1.10;99.90;;;;;;4948594;28;20094;-68
2022/01/21 13:26:21;;;;;;;22.35;6.20;;;1.10;99.90;;;;;;4949345;28;20142;-67
2022/01/21 13:29:01;;;;;;;23.60;5.35;;;1.10;99.90;;;;;;4950084;28;20031;-69
2022/01/21 13:31:31;;;;;;;23.45;6.50;;;1.10;99.90;;;;;;4949530;28;20047;-68
2022/01/21 13:34:26;;;;;;;19.90;6.45;;;1.10;99.90;;;;;;4948854;28;20039;-70
2022/01/21 13:37:00;;;;;;;21.95;7.32;;;1.10;99.90;;;;;;4936463;29;20040;-69
2022/01/21 13:39:26;;;;;;;18.65;5.70;;;1.10;99.90;;;;;;4942299;28;20035;-69
2022/01/21 13:42:09;;;;;;;17.05;5.53;;;1.20;99.90;;;;;;4949633;28;20400;-68
2022/01/21 13:44:41;;;;;;;28.80;6.25;;;1.20;99.90;;;;;;4949883;28;20027;-68
2022/01/21 13:47:31;;;;;;;17.70;6.50;;;1.20;99.90;;;;;;4952500;28;20392;-69
2022/01/21 13:50:11;;;;;;;23.33;5.93;;;1.20;99.90;;;;;;4947554;28;20031;-69
2022/01/21 13:52:47;;;;;;;12.80;4.45;;;1.20;99.90;;;;;;4953076;28;20050;-68
2022/01/21 13:55:42;;;;;;;18.48;5.75;;;1.10;99.90;;;;;;4952585;28;20054;-69
2022/01/21 13:58:17;;;;;;;19.00;5.60;;;1.20;99.90;;;;;;4942370;28;20039;-68
2022/01/21 14:00:50;;;;;;;25.30;5.70;;;1.10;99.90;;;;;;4945673;28;20027;-69